createdAt,value
2023-04-27T00:01:13.421Z,6.07
2023-04-27T00:03:41.309Z,6.30
2023-04-27T00:06:09.517Z,5.93
2023-04-27T00:08:36.144Z,6.05
2023-04-27T00:11:02.856Z,5.63
2023-04-27T00:13:29.474Z,6.07
2023-04-27T00:15:56.214Z,5.70
2023-04-27T00:18:22.921Z,6.20
2023-04-27T00:20:49.916Z,6.18
2023-04-27T00:23:16.619Z,6.22
2023-04-27T00:25:43.216Z,6.35
2023-04-27T00:28:09.883Z,6.70
2023-04-27T00:30:36.530Z,6.60
2023-04-27T00:33:03.238Z,6.80
2023-04-27T00:35:29.862Z,7.32
2023-04-27T00:37:58.228Z,6.60
2023-04-27T00:40:24.927Z,6.60
2023-04-27T00:42:52.565Z,6.72
2023-04-27T00:45:19.243Z,7.38
2023-04-27T00:47:46.259Z,7.88
2023-04-27T00:50:12.974Z,7.88
2023-04-27T00:52:40.072Z,7.30
2023-04-27T00:55:07.546Z,6.90
2023-04-27T00:57:35.063Z,7.05
2023-04-27T01:00:02.374Z,7.07
2023-04-27T01:02:29.912Z,7.03
2023-04-27T01:04:57.148Z,6.90
2023-04-27T01:07:26.942Z,6.60
2023-04-27T01:09:53.661Z,6.38
2023-04-27T01:12:20.586Z,5.88
2023-04-27T01:14:48.376Z,5.75
2023-04-27T01:17:15.035Z,5.70
2023-04-27T01:19:41.732Z,5.30
2023-04-27T01:22:10.315Z,6.50
2023-04-27T01:24:37.992Z,6.28
2023-04-27T01:27:05.446Z,5.55
2023-04-27T01:29:32.226Z,5.70
2023-04-27T01:31:58.871Z,5.95
2023-04-27T01:34:25.491Z,6.20
2023-04-27T01:36:52.082Z,6.22
2023-04-27T01:39:18.610Z,7.50
2023-04-27T01:41:45.337Z,6.60
2023-04-27T01:44:12.110Z,6.30
2023-04-27T01:46:38.948Z,6.25
2023-04-27T01:49:06.811Z,6.90
2023-04-27T01:51:34.067Z,7.00
2023-04-27T01:54:00.907Z,7.67
2023-04-27T01:56:27.563Z,7.28
2023-04-27T01:58:55.799Z,6.20
2023-04-27T02:01:22.800Z,6.55
2023-04-27T02:03:49.720Z,6.72
2023-04-27T02:06:17.648Z,6.53
2023-04-27T02:08:45.969Z,6.18
2023-04-27T02:11:12.607Z,6.53
2023-04-27T02:13:39.244Z,5.80
2023-04-27T02:16:06.509Z,6.22
2023-04-27T02:18:33.739Z,6.57
2023-04-27T02:21:01.060Z,6.57
2023-04-27T02:23:27.826Z,6.65
2023-04-27T02:25:55.501Z,5.95
2023-04-27T02:28:22.198Z,6.40
2023-04-27T02:30:49.531Z,6.30
2023-04-27T02:33:16.153Z,6.75
2023-04-27T02:35:42.747Z,6.40
2023-04-27T02:38:10.342Z,6.22
2023-04-27T02:40:38.060Z,6.10
2023-04-27T02:43:06.364Z,6.17
2023-04-27T02:45:37.070Z,6.20
2023-04-27T02:48:05.804Z,6.03
2023-04-27T02:50:34.028Z,6.13
2023-04-27T02:53:00.904Z,6.82
2023-04-27T02:55:27.689Z,6.00
2023-04-27T02:57:54.484Z,6.10
2023-04-27T03:00:21.149Z,6.10
2023-04-27T03:02:47.904Z,6.55
2023-04-27T03:05:14.867Z,6.10
2023-04-27T03:07:42.000Z,5.50
2023-04-27T03:10:09.322Z,5.57
2023-04-27T03:12:36.005Z,5.90
2023-04-27T03:15:02.706Z,6.63
2023-04-27T03:17:29.650Z,6.43
2023-04-27T03:19:56.291Z,6.00
2023-04-27T03:22:24.053Z,6.20
2023-04-27T03:24:50.683Z,6.43
2023-04-27T03:27:17.292Z,6.15
2023-04-27T03:29:45.165Z,6.53
2023-04-27T03:32:12.139Z,7.27
2023-04-27T03:34:38.713Z,6.28
2023-04-27T03:37:06.352Z,5.93
2023-04-27T03:39:36.888Z,6.40
2023-04-27T03:42:04.116Z,6.05
2023-04-27T03:44:31.671Z,5.83
2023-04-27T03:46:58.356Z,6.15
2023-04-27T03:49:25.718Z,5.75
2023-04-27T03:51:52.489Z,5.93
2023-04-27T03:54:19.116Z,5.90
2023-04-27T03:56:46.577Z,6.17
2023-04-27T03:59:13.524Z,6.30
2023-04-27T04:01:46.913Z,7.18
2023-04-27T04:04:13.739Z,7.47
2023-04-27T04:06:42.093Z,7.93
2023-04-27T04:09:08.729Z,10.30
2023-04-27T04:11:35.574Z,12.27
2023-04-27T04:14:05.850Z,8.95
2023-04-27T04:16:33.559Z,7.70
2023-04-27T04:19:00.268Z,6.72
2023-04-27T04:21:26.838Z,7.07
2023-04-27T04:23:53.492Z,7.18
2023-04-27T04:26:20.547Z,6.47
2023-04-27T04:28:47.209Z,6.50
2023-04-27T04:31:15.007Z,6.63
2023-04-27T04:33:41.697Z,6.37
2023-04-27T04:36:08.516Z,6.38
2023-04-27T04:38:35.436Z,6.38
2023-04-27T04:41:02.385Z,6.13
2023-04-27T04:43:31.893Z,6.00
2023-04-27T04:46:01.576Z,5.80
2023-04-27T04:48:29.091Z,6.00
2023-04-27T04:50:55.776Z,6.25
2023-04-27T04:53:22.525Z,6.35
2023-04-27T04:55:49.110Z,5.95
2023-04-27T04:58:15.858Z,6.40
2023-04-27T05:00:43.063Z,7.18
2023-04-27T05:03:09.817Z,6.22
2023-04-27T05:05:36.577Z,6.03
2023-04-27T05:08:03.324Z,6.22
2023-04-27T05:10:29.949Z,5.93
2023-04-27T05:12:56.622Z,5.88
2023-04-27T05:15:23.278Z,5.55
2023-04-27T05:17:51.119Z,5.90
2023-04-27T05:20:17.880Z,6.25
2023-04-27T05:22:44.500Z,5.73
2023-04-27T05:25:11.145Z,5.85
2023-04-27T05:27:37.778Z,5.97
2023-04-27T05:30:04.763Z,5.68
2023-04-27T05:32:33.676Z,6.40
2023-04-27T05:35:00.386Z,6.37
2023-04-27T05:37:26.894Z,6.53
2023-04-27T05:39:53.509Z,6.28
2023-04-27T05:42:20.116Z,6.43
2023-04-27T05:44:47.697Z,5.78
2023-04-27T05:47:14.354Z,5.87
2023-04-27T05:49:41.214Z,5.80
2023-04-27T05:52:07.808Z,5.53
2023-04-27T05:54:34.334Z,6.00
2023-04-27T05:57:00.981Z,5.93
2023-04-27T05:59:29.269Z,6.10
2023-04-27T06:01:56.858Z,5.80
2023-04-27T06:04:23.577Z,5.88
2023-04-27T06:06:50.354Z,6.13
2023-04-27T06:09:16.987Z,5.85
2023-04-27T06:11:43.765Z,5.60
2023-04-27T06:14:10.437Z,5.72
2023-04-27T06:16:40.585Z,5.68
2023-04-27T06:19:08.226Z,5.40
2023-04-27T06:21:35.981Z,5.90
2023-04-27T06:24:02.660Z,5.50
2023-04-27T06:26:29.251Z,6.47
2023-04-27T06:28:56.798Z,6.05
2023-04-27T06:31:23.497Z,5.90
2023-04-27T06:33:50.077Z,6.45
2023-04-27T06:36:16.737Z,6.20
2023-04-27T06:38:43.322Z,5.95
2023-04-27T06:41:09.956Z,6.38
2023-04-27T06:43:36.600Z,5.88
2023-04-27T06:46:03.440Z,5.63
2023-04-27T06:48:30.207Z,5.40
2023-04-27T06:50:56.954Z,5.75
2023-04-27T06:53:23.602Z,5.47
2023-04-27T06:55:51.104Z,5.47
2023-04-27T06:58:17.689Z,5.50
2023-04-27T07:00:44.435Z,5.67
2023-04-27T07:03:11.404Z,5.75
2023-04-27T07:05:38.238Z,5.80
2023-04-27T07:08:08.203Z,5.78
2023-04-27T07:10:36.118Z,6.97
2023-04-27T07:13:02.798Z,6.30
2023-04-27T07:15:31.060Z,5.88
2023-04-27T07:17:57.738Z,6.20
2023-04-27T07:20:24.406Z,5.75
2023-04-27T07:22:51.155Z,8.85
2023-04-27T07:25:21.346Z,8.13
2023-04-27T07:27:48.108Z,6.50
2023-04-27T07:30:15.604Z,6.13
2023-04-27T07:32:42.444Z,5.32
2023-04-27T07:35:09.748Z,5.80
2023-04-27T07:37:40.349Z,5.53
2023-04-27T07:40:16.257Z,5.75
2023-04-27T07:42:43.277Z,5.50
2023-04-27T07:45:10.272Z,5.82
2023-04-27T07:47:37.161Z,5.40
2023-04-27T07:50:04.756Z,4.90
2023-04-27T07:52:31.668Z,5.15
2023-04-27T07:54:58.307Z,5.50
2023-04-27T07:57:24.941Z,5.20
2023-04-27T07:59:51.712Z,5.28
2023-04-27T08:02:20.386Z,4.70
2023-04-27T08:04:48.534Z,4.90
2023-04-27T08:07:17.516Z,5.90
2023-04-27T08:09:44.467Z,5.57
2023-04-27T08:12:11.252Z,6.13
2023-04-27T08:14:37.853Z,5.57
2023-04-27T08:17:04.603Z,4.90
2023-04-27T08:19:31.317Z,4.60
2023-04-27T08:21:57.920Z,5.70
2023-04-27T08:24:24.551Z,5.40
2023-04-27T08:26:51.122Z,5.10
2023-04-27T08:29:27.006Z,5.30
2023-04-27T08:31:56.978Z,4.90
2023-04-27T08:34:24.089Z,5.32
2023-04-27T08:36:50.693Z,5.32
2023-04-27T08:39:18.126Z,4.88
2023-04-27T08:41:44.857Z,4.70
2023-04-27T08:44:11.969Z,4.93
2023-04-27T08:46:39.452Z,5.00
2023-04-27T08:49:07.654Z,5.03
2023-04-27T08:51:35.189Z,4.85
2023-04-27T08:54:02.034Z,4.80
2023-04-27T08:56:30.261Z,5.30
2023-04-27T08:58:58.106Z,5.28
2023-04-27T09:01:26.112Z,5.40
2023-04-27T09:03:57.386Z,5.00
2023-04-27T09:06:34.649Z,5.50
2023-04-27T09:09:02.076Z,4.60
2023-04-27T09:11:34.867Z,4.90
2023-04-27T09:14:04.013Z,5.00
2023-04-27T09:16:31.330Z,4.80
2023-04-27T09:18:58.974Z,5.20
2023-04-27T09:21:30.142Z,5.45
2023-04-27T09:23:57.350Z,4.70
2023-04-27T09:26:28.000Z,4.40
2023-04-27T09:28:58.838Z,4.60
2023-04-27T09:31:32.986Z,3.80
2023-04-27T09:33:59.703Z,4.47
2023-04-27T09:36:26.715Z,5.40
2023-04-27T09:38:54.066Z,6.05
2023-04-27T09:41:21.829Z,5.25
2023-04-27T09:43:48.970Z,5.00
2023-04-27T09:46:16.021Z,4.68
2023-04-27T09:48:42.777Z,4.53
2023-04-27T09:51:09.536Z,4.63
2023-04-27T09:53:41.030Z,4.55
2023-04-27T09:56:31.671Z,4.47
2023-04-27T09:59:32.609Z,3.83
2023-04-27T10:02:07.200Z,4.00
2023-04-27T10:05:15.276Z,4.57
2023-04-27T10:07:42.149Z,3.85
2023-04-27T10:10:18.333Z,4.37
2023-04-27T10:12:56.245Z,4.57
2023-04-27T10:15:29.830Z,4.20
2023-04-27T10:17:58.816Z,4.18
2023-04-27T10:20:31.321Z,4.22
2023-04-27T10:22:58.789Z,4.20
2023-04-27T10:25:30.257Z,4.63
2023-04-27T10:27:56.937Z,4.90
2023-04-27T10:30:26.052Z,4.05
2023-04-27T10:32:56.744Z,4.82
2023-04-27T10:35:40.489Z,4.30
2023-04-27T10:38:16.246Z,4.30
2023-04-27T10:40:45.840Z,4.60
2023-04-27T10:43:17.896Z,4.68
2023-04-27T10:45:45.442Z,4.57
2023-04-27T10:48:15.890Z,4.73
2023-04-27T10:50:44.682Z,4.80
2023-04-27T10:53:11.346Z,4.68
2023-04-27T10:55:38.149Z,4.70
2023-04-27T10:58:04.860Z,4.25
2023-04-27T11:00:34.118Z,4.33
2023-04-27T11:03:17.105Z,4.13
2023-04-27T11:05:45.274Z,4.45
2023-04-27T11:08:14.006Z,4.40
2023-04-27T11:10:44.430Z,4.40
2023-04-27T11:13:15.676Z,4.20
2023-04-27T11:15:47.922Z,4.38
2023-04-27T11:18:16.516Z,4.72
2023-04-27T11:20:48.876Z,4.70
2023-04-27T11:23:30.549Z,4.38
2023-04-27T11:25:57.315Z,4.70
2023-04-27T11:28:24.509Z,5.15
2023-04-27T11:31:00.911Z,4.78
2023-04-27T11:33:28.101Z,4.55
2023-04-27T11:35:54.703Z,3.95
2023-04-27T11:38:22.014Z,4.77
2023-04-27T11:41:04.121Z,4.70
2023-04-27T11:43:31.033Z,4.70
2023-04-27T11:45:58.998Z,4.07
2023-04-27T11:48:27.444Z,4.20
2023-04-27T11:50:54.025Z,4.53
2023-04-27T11:53:36.692Z,4.00
2023-04-27T11:56:05.686Z,6.53
2023-04-27T11:58:36.651Z,4.28
2023-04-27T12:01:07.459Z,4.03
2023-04-27T12:03:34.961Z,4.00
2023-04-27T12:08:31.747Z,4.10
2023-04-27T12:10:58.492Z,4.25
2023-04-27T12:13:25.137Z,4.65
2023-04-27T12:15:52.287Z,4.87
2023-04-27T12:18:18.898Z,3.85
2023-04-27T12:20:45.927Z,3.47
2023-04-27T12:23:12.825Z,3.20
2023-04-27T12:25:41.092Z,4.13
2023-04-27T12:28:07.868Z,4.67
2023-04-27T12:30:34.952Z,3.88
2023-04-27T12:33:02.367Z,4.07
2023-04-27T12:35:31.997Z,3.47
2023-04-27T12:37:58.739Z,3.45
2023-04-27T12:40:25.532Z,3.30
2023-04-27T12:42:52.117Z,3.15
2023-04-27T12:45:18.758Z,3.55
2023-04-27T12:48:00.978Z,3.78
2023-04-27T12:50:31.256Z,3.38
2023-04-27T12:52:57.841Z,3.93
2023-04-27T12:55:32.926Z,3.72
2023-04-27T12:58:00.804Z,4.00
2023-04-27T13:00:27.714Z,3.92
2023-04-27T13:02:54.632Z,3.97
2023-04-27T13:05:22.316Z,4.13
2023-04-27T13:07:49.185Z,3.78
2023-04-27T13:10:16.174Z,4.07
2023-04-27T13:12:42.852Z,3.95
2023-04-27T13:15:10.721Z,3.83
2023-04-27T13:17:38.007Z,3.90
2023-04-27T13:20:05.993Z,3.92
2023-04-27T13:22:32.840Z,4.20
2023-04-27T13:24:59.372Z,3.80
2023-04-27T13:27:28.342Z,4.32
2023-04-27T13:29:55.098Z,4.00
2023-04-27T13:32:22.326Z,4.43
2023-04-27T13:34:49.308Z,4.13
2023-04-27T13:37:16.537Z,4.47
2023-04-27T13:39:43.222Z,4.28
2023-04-27T13:42:10.093Z,4.77
2023-04-27T13:44:36.865Z,4.28
2023-04-27T13:47:03.644Z,4.00
2023-04-27T13:49:30.318Z,4.38
2023-04-27T13:51:57.013Z,4.72
2023-04-27T13:54:23.890Z,4.27
2023-04-27T13:56:50.457Z,4.55
2023-04-27T13:59:17.207Z,4.50
2023-04-27T14:01:44.019Z,4.60
2023-04-27T14:04:10.648Z,4.80
2023-04-27T14:06:37.559Z,4.63
2023-04-27T14:09:04.263Z,3.80
2023-04-27T14:11:30.861Z,4.20
2023-04-27T14:13:58.044Z,4.22
2023-04-27T14:16:24.789Z,4.85
2023-04-27T14:18:52.322Z,4.07
2023-04-27T14:21:19.106Z,4.78
2023-04-27T14:23:46.501Z,5.03
2023-04-27T14:26:13.190Z,4.28
2023-04-27T14:28:40.622Z,5.20
2023-04-27T14:31:07.191Z,4.20
2023-04-27T14:33:33.812Z,4.60
2023-04-27T14:36:00.676Z,3.97
2023-04-27T14:38:27.571Z,4.75
2023-04-27T14:40:54.171Z,4.63
2023-04-27T14:43:20.921Z,4.63
2023-04-27T14:45:54.053Z,4.40
2023-04-27T14:48:22.286Z,4.30
2023-04-27T14:50:48.942Z,4.78
2023-04-27T14:53:15.500Z,4.30
2023-04-27T14:55:44.117Z,4.00
2023-04-27T14:58:11.290Z,3.67
2023-04-27T15:00:38.301Z,4.25
2023-04-27T15:03:06.214Z,6.35
2023-04-27T15:05:32.993Z,6.10
2023-04-27T15:07:59.510Z,4.57
2023-04-27T15:10:26.114Z,4.47
2023-04-27T15:12:52.749Z,4.50
2023-04-27T15:15:19.349Z,5.13
2023-04-27T15:17:46.064Z,4.43
2023-04-27T15:20:14.000Z,4.90
2023-04-27T15:22:41.059Z,4.30
2023-04-27T15:25:08.448Z,4.90
2023-04-27T15:27:36.021Z,4.63
2023-04-27T15:30:06.249Z,4.57
2023-04-27T15:32:32.941Z,4.63
2023-04-27T15:34:59.902Z,5.03
2023-04-27T15:37:28.166Z,4.40
2023-04-27T15:39:55.305Z,4.53
2023-04-27T15:42:22.676Z,5.28
2023-04-27T15:44:49.250Z,6.17
2023-04-27T15:47:16.131Z,5.13
2023-04-27T15:49:53.591Z,5.85
2023-04-27T15:52:23.960Z,4.90
2023-04-27T15:54:50.481Z,5.30
2023-04-27T15:57:18.242Z,5.10
2023-04-27T15:59:44.976Z,4.65
2023-04-27T16:02:12.704Z,4.47
2023-04-27T16:04:40.609Z,4.50
2023-04-27T16:07:07.442Z,4.72
2023-04-27T16:09:34.366Z,3.80
2023-04-27T16:12:01.864Z,4.35
2023-04-27T16:14:28.480Z,5.03
2023-04-27T16:16:59.382Z,4.88
2023-04-27T16:19:27.223Z,4.28
2023-04-27T16:21:54.273Z,3.87
2023-04-27T16:24:21.229Z,4.55
2023-04-27T16:26:48.082Z,4.30
2023-04-27T16:29:14.876Z,4.95
2023-04-27T16:31:42.723Z,4.70
2023-04-27T16:34:09.599Z,5.23
2023-04-27T16:36:39.414Z,4.75
2023-04-27T16:39:05.987Z,5.03
2023-04-27T16:41:32.947Z,4.88
2023-04-27T16:43:59.790Z,4.65
2023-04-27T16:46:26.494Z,4.43
2023-04-27T16:48:53.188Z,4.88
2023-04-27T16:51:19.846Z,4.75
2023-04-27T16:53:47.456Z,4.50
2023-04-27T16:56:14.192Z,4.60
2023-04-27T16:58:41.039Z,4.47
2023-04-27T17:01:07.831Z,4.55
2023-04-27T17:03:36.076Z,4.68
2023-04-27T17:06:03.233Z,5.18
2023-04-27T17:08:30.061Z,6.13
2023-04-27T17:10:56.730Z,5.17
2023-04-27T17:13:23.369Z,4.93
2023-04-27T17:15:50.090Z,4.45
2023-04-27T17:18:16.971Z,5.50
2023-04-27T17:20:43.532Z,4.55
2023-04-27T17:23:10.370Z,4.67
2023-04-27T17:25:37.044Z,5.07
2023-04-27T17:28:03.788Z,4.57
2023-04-27T17:30:30.507Z,4.63
2023-04-27T17:32:57.278Z,4.50
2023-04-27T17:35:23.978Z,5.00
2023-04-27T17:37:51.886Z,4.35
2023-04-27T17:40:20.871Z,4.30
2023-04-27T17:42:47.929Z,4.00
2023-04-27T17:45:15.046Z,4.43
2023-04-27T17:47:41.965Z,4.50
2023-04-27T17:50:09.303Z,4.53
2023-04-27T17:52:35.861Z,5.63
2023-04-27T17:55:02.860Z,6.75
2023-04-27T17:57:29.587Z,5.85
2023-04-27T17:59:56.207Z,5.87
2023-04-27T18:02:23.102Z,8.10
2023-04-27T18:04:50.004Z,22.90
2023-04-27T18:07:18.594Z,18.80
2023-04-27T18:09:45.425Z,11.30
2023-04-27T18:12:12.220Z,10.40
2023-04-27T18:14:39.020Z,6.88
2023-04-27T18:17:06.772Z,6.50
2023-04-27T18:19:33.580Z,7.30
2023-04-27T18:22:00.192Z,5.88
2023-04-27T18:24:26.725Z,7.40
2023-04-27T18:26:53.335Z,9.20
2023-04-27T18:29:19.919Z,11.68
2023-04-27T18:31:46.821Z,11.73
2023-04-27T18:34:14.377Z,15.27
2023-04-27T18:36:41.004Z,14.67
2023-04-27T18:39:07.528Z,17.70
2023-04-27T18:41:34.151Z,18.10
2023-04-27T18:44:05.564Z,15.38
2023-04-27T18:46:32.790Z,12.05
2023-04-27T18:49:00.478Z,11.93
2023-04-27T18:51:27.262Z,11.65
2023-04-27T18:53:53.868Z,9.57
2023-04-27T18:56:20.681Z,7.97
2023-04-27T18:58:48.587Z,8.25
2023-04-27T19:01:23.250Z,9.03
2023-04-27T19:03:50.804Z,9.50
2023-04-27T19:06:18.871Z,7.75
2023-04-27T19:08:46.838Z,7.10
2023-04-27T19:11:16.352Z,6.03
2023-04-27T19:13:45.006Z,5.53
2023-04-27T19:16:12.158Z,6.20
2023-04-27T19:18:40.613Z,6.43
2023-04-27T19:21:09.969Z,5.90
2023-04-27T19:23:36.793Z,5.97
2023-04-27T19:26:12.369Z,5.40
2023-04-27T19:28:40.483Z,6.88
2023-04-27T19:31:07.564Z,9.25
2023-04-27T19:33:34.261Z,13.63
2023-04-27T19:36:00.863Z,27.13
2023-04-27T19:38:27.535Z,17.83
2023-04-27T19:40:56.421Z,12.77
2023-04-27T19:43:22.997Z,14.35
2023-04-27T19:45:49.635Z,9.45
2023-04-27T19:48:16.580Z,7.15
2023-04-27T19:50:43.978Z,5.80
2023-04-27T19:53:11.141Z,10.88
2023-04-27T19:55:37.912Z,13.32
2023-04-27T19:58:04.649Z,12.52
2023-04-27T20:00:31.472Z,6.53
2023-04-27T20:02:58.175Z,5.20
2023-04-27T20:05:25.266Z,5.13
2023-04-27T20:07:52.314Z,5.47
2023-04-27T20:10:19.020Z,5.55
2023-04-27T20:12:55.947Z,5.43
2023-04-27T20:15:24.079Z,4.90
2023-04-27T20:17:50.871Z,6.80
2023-04-27T20:20:18.117Z,8.48
2023-04-27T20:22:45.028Z,7.82
2023-04-27T20:25:13.946Z,5.50
2023-04-27T20:27:41.077Z,4.70
2023-04-27T20:30:08.388Z,5.00
2023-04-27T20:32:35.048Z,5.03
2023-04-27T20:35:02.522Z,5.45
2023-04-27T20:37:29.185Z,4.95
2023-04-27T20:39:55.880Z,5.23
2023-04-27T20:42:22.522Z,5.07
2023-04-27T20:44:49.251Z,5.15
2023-04-27T20:47:16.377Z,4.88
2023-04-27T20:49:43.005Z,4.95
2023-04-27T20:52:09.730Z,5.03
2023-04-27T20:54:36.505Z,5.60
2023-04-27T20:57:08.388Z,5.28
2023-04-27T20:59:35.080Z,7.20
2023-04-27T21:02:01.805Z,7.95
2023-04-27T21:04:28.483Z,5.77
2023-04-27T21:06:55.074Z,5.43
2023-04-27T21:09:21.786Z,5.82
2023-04-27T21:11:48.369Z,6.22
2023-04-27T21:14:15.111Z,6.20
2023-04-27T21:16:41.833Z,7.30
2023-04-27T21:19:08.858Z,7.88
2023-04-27T21:21:35.426Z,7.18
2023-04-27T21:24:07.878Z,7.80
2023-04-27T21:26:34.996Z,7.63
2023-04-27T21:29:02.389Z,7.47
2023-04-27T21:31:29.018Z,7.72
2023-04-27T21:33:55.670Z,7.70
2023-04-27T21:36:22.230Z,7.63
2023-04-27T21:38:52.945Z,7.68
2023-04-27T21:41:19.577Z,7.60
2023-04-27T21:43:47.252Z,7.85
2023-04-27T21:46:13.909Z,6.97
2023-04-27T21:48:40.498Z,6.00
2023-04-27T21:51:07.315Z,7.20
2023-04-27T21:53:33.892Z,6.07
2023-04-27T21:56:00.561Z,6.10
2023-04-27T21:58:27.146Z,6.63
2023-04-27T22:00:53.761Z,6.35
2023-04-27T22:03:21.513Z,6.10
2023-04-27T22:05:52.750Z,6.10
2023-04-27T22:08:19.710Z,5.82
2023-04-27T22:10:47.097Z,5.40
2023-04-27T22:13:19.999Z,5.53
2023-04-27T22:15:47.505Z,4.95
2023-04-27T22:18:15.322Z,4.70
2023-04-27T22:20:42.889Z,4.63
2023-04-27T22:23:10.109Z,4.65
2023-04-27T22:25:37.005Z,4.68
2023-04-27T22:28:03.746Z,5.22
2023-04-27T22:30:30.951Z,4.97
2023-04-27T22:32:57.886Z,5.35
2023-04-27T22:35:27.582Z,5.13
2023-04-27T22:38:01.040Z,4.57
2023-04-27T22:40:27.677Z,4.80
2023-04-27T22:42:55.037Z,5.00
2023-04-27T22:45:22.721Z,4.65
2023-04-27T22:47:49.657Z,4.32
2023-04-27T22:50:16.682Z,5.00
2023-04-27T22:52:43.494Z,5.30
2023-04-27T22:55:11.963Z,4.93
2023-04-27T22:57:39.644Z,5.00
2023-04-27T23:00:11.186Z,4.50
2023-04-27T23:02:39.281Z,5.18
2023-04-27T23:05:10.888Z,4.55
2023-04-27T23:07:38.288Z,4.90
2023-04-27T23:10:05.859Z,5.22
2023-04-27T23:12:32.854Z,5.75
2023-04-27T23:14:59.428Z,6.47
2023-04-27T23:17:31.968Z,5.43
2023-04-27T23:20:00.564Z,5.45
2023-04-27T23:22:27.487Z,6.00
2023-04-27T23:24:54.346Z,5.80
2023-04-27T23:27:21.869Z,5.22
2023-04-27T23:29:48.475Z,5.38
2023-04-27T23:32:15.129Z,5.32
2023-04-27T23:34:41.775Z,6.22
2023-04-27T23:37:08.472Z,5.50
2023-04-27T23:39:35.015Z,5.07
2023-04-27T23:42:01.882Z,4.90
2023-04-27T23:44:28.551Z,5.65
2023-04-27T23:46:57.406Z,5.40
2023-04-27T23:49:24.042Z,5.18
2023-04-27T23:51:52.443Z,5.22
2023-04-27T23:54:19.082Z,5.07
2023-04-27T23:56:46.040Z,5.35
2023-04-27T23:59:12.706Z,4.93
